createdAt,value
2023-05-14T00:01:21.257Z,4.77
2023-05-14T00:03:49.015Z,4.93
2023-05-14T00:06:16.738Z,5.03
2023-05-14T00:08:45.814Z,5.22
2023-05-14T00:11:13.427Z,5.00
2023-05-14T00:13:41.064Z,4.77
2023-05-14T00:16:08.691Z,4.55
2023-05-14T00:18:36.303Z,5.00
2023-05-14T00:21:03.971Z,5.25
2023-05-14T00:23:31.721Z,5.97
2023-05-14T00:26:00.904Z,6.60
2023-05-14T00:28:28.514Z,6.32
2023-05-14T00:30:57.274Z,6.10
2023-05-14T00:33:24.898Z,5.20
2023-05-14T00:35:52.782Z,5.28
2023-05-14T00:38:20.435Z,5.37
2023-05-14T00:40:51.753Z,5.10
2023-05-14T00:43:21.235Z,4.63
2023-05-14T00:45:50.213Z,5.63
2023-05-14T00:48:18.065Z,5.30
2023-05-14T00:50:45.729Z,5.43
2023-05-14T00:53:13.636Z,5.60
2023-05-14T00:55:42.886Z,5.57
2023-05-14T00:58:11.299Z,5.50
2023-05-14T01:00:40.909Z,5.65
2023-05-14T01:03:09.232Z,5.27
2023-05-14T01:05:40.705Z,5.22
2023-05-14T01:08:10.523Z,5.35
2023-05-14T01:10:40.146Z,4.97
2023-05-14T01:13:10.454Z,5.13
2023-05-14T01:15:38.944Z,5.23
2023-05-14T01:18:09.453Z,4.97
2023-05-14T01:20:37.356Z,5.13
2023-05-14T01:23:06.553Z,4.90
2023-05-14T01:25:34.306Z,4.82
2023-05-14T01:28:06.006Z,4.77
2023-05-14T01:30:35.422Z,5.10
2023-05-14T01:33:04.236Z,4.90
2023-05-14T01:35:31.939Z,4.88
2023-05-14T01:38:00.685Z,4.65
2023-05-14T01:40:30.191Z,4.60
2023-05-14T01:42:58.070Z,5.10
2023-05-14T01:45:25.720Z,4.95
2023-05-14T01:47:53.620Z,4.85
2023-05-14T01:50:21.507Z,5.07
2023-05-14T01:52:49.304Z,5.13
2023-05-14T01:55:18.385Z,5.03
2023-05-14T01:57:47.473Z,5.18
2023-05-14T02:00:15.306Z,5.28
2023-05-14T02:02:43.009Z,5.30
2023-05-14T02:05:11.346Z,5.90
2023-05-14T02:07:38.951Z,5.40
2023-05-14T02:10:07.133Z,5.60
2023-05-14T02:12:34.940Z,5.00
2023-05-14T02:15:04.177Z,5.30
2023-05-14T02:17:31.898Z,5.50
2023-05-14T02:19:59.699Z,5.70
2023-05-14T02:22:27.299Z,5.30
2023-05-14T02:24:55.005Z,5.22
2023-05-14T02:27:22.676Z,5.63
2023-05-14T02:29:50.315Z,5.63
2023-05-14T02:32:19.380Z,5.40
2023-05-14T02:34:47.002Z,5.60
2023-05-14T02:37:14.612Z,5.40
2023-05-14T02:39:42.202Z,5.50
2023-05-14T02:42:09.814Z,5.30
2023-05-14T02:44:37.566Z,5.47
2023-05-14T02:47:05.409Z,5.50
2023-05-14T02:49:34.549Z,5.00
2023-05-14T02:52:02.254Z,5.82
2023-05-14T02:54:29.960Z,5.23
2023-05-14T02:56:57.551Z,5.15
2023-05-14T02:59:25.486Z,5.20
2023-05-14T03:01:53.688Z,4.90
2023-05-14T03:04:21.804Z,5.45
2023-05-14T03:06:50.836Z,5.30
2023-05-14T03:09:18.500Z,5.38
2023-05-14T03:11:46.103Z,5.47
2023-05-14T03:14:13.700Z,5.30
2023-05-14T03:16:42.314Z,5.15
2023-05-14T03:19:10.399Z,5.30
2023-05-14T03:21:38.166Z,5.88
2023-05-14T03:24:07.503Z,5.85
2023-05-14T03:26:35.143Z,5.13
2023-05-14T03:29:03.939Z,5.55
2023-05-14T03:31:31.598Z,5.97
2023-05-14T03:33:59.338Z,6.45
2023-05-14T03:36:26.982Z,6.25
2023-05-14T03:38:54.690Z,6.70
2023-05-14T03:41:23.825Z,6.93
2023-05-14T03:43:51.471Z,6.30
2023-05-14T03:46:19.145Z,6.90
2023-05-14T03:48:46.823Z,6.72
2023-05-14T03:51:14.564Z,6.82
2023-05-14T03:53:42.420Z,7.60
2023-05-14T03:56:10.062Z,7.60
2023-05-14T03:58:39.043Z,7.35
2023-05-14T04:01:06.670Z,8.60
2023-05-14T04:03:34.481Z,7.70
2023-05-14T04:06:02.636Z,7.25
2023-05-14T04:08:30.314Z,7.73
2023-05-14T04:10:57.896Z,8.38
2023-05-14T04:13:25.581Z,8.90
2023-05-14T04:15:54.666Z,8.63
2023-05-14T04:18:22.401Z,8.18
2023-05-14T04:20:50.011Z,7.77
2023-05-14T04:23:17.653Z,8.52
2023-05-14T04:25:45.243Z,8.13
2023-05-14T04:28:12.874Z,7.82
2023-05-14T04:30:40.526Z,8.63
2023-05-14T04:33:10.294Z,8.17
2023-05-14T04:35:38.169Z,8.65
2023-05-14T04:38:06.094Z,8.80
2023-05-14T04:40:33.718Z,9.20
2023-05-14T04:43:01.339Z,9.00
2023-05-14T04:45:28.970Z,9.73
2023-05-14T04:47:56.637Z,9.30
2023-05-14T04:50:25.919Z,8.80
2023-05-14T04:52:55.778Z,8.35
2023-05-14T04:55:23.567Z,9.75
2023-05-14T04:57:51.276Z,9.23
2023-05-14T05:00:19.270Z,9.73
2023-05-14T05:02:46.950Z,9.65
2023-05-14T05:05:14.657Z,9.63
2023-05-14T05:07:43.685Z,9.95
2023-05-14T05:10:11.439Z,9.03
2023-05-14T05:12:39.142Z,10.10
2023-05-14T05:15:07.290Z,10.20
2023-05-14T05:17:34.977Z,10.10
2023-05-14T05:20:02.632Z,10.23
2023-05-14T05:22:30.391Z,10.27
2023-05-14T05:24:59.894Z,10.20
2023-05-14T05:27:27.722Z,10.70
2023-05-14T05:29:55.320Z,10.73
2023-05-14T05:32:23.258Z,10.82
2023-05-14T05:34:51.992Z,10.83
2023-05-14T05:37:19.853Z,10.82
2023-05-14T05:39:48.321Z,11.30
2023-05-14T05:42:17.346Z,10.52
2023-05-14T05:44:45.012Z,11.05
2023-05-14T05:47:12.654Z,10.80
2023-05-14T05:49:42.527Z,11.10
2023-05-14T05:52:10.313Z,11.13
2023-05-14T05:54:39.922Z,10.80
2023-05-14T05:57:07.583Z,10.80
2023-05-14T05:59:37.427Z,10.47
2023-05-14T06:02:05.238Z,10.35
2023-05-14T06:04:32.856Z,11.45
2023-05-14T06:07:00.525Z,10.57
2023-05-14T06:09:28.181Z,10.85
2023-05-14T06:11:55.879Z,9.83
2023-05-14T06:14:23.542Z,10.32
2023-05-14T06:16:52.606Z,10.25
2023-05-14T06:19:20.668Z,9.55
2023-05-14T06:21:48.658Z,9.90
2023-05-14T06:24:16.481Z,8.70
2023-05-14T06:26:44.240Z,9.40
2023-05-14T06:29:11.881Z,8.45
2023-05-14T06:31:39.593Z,10.00
2023-05-14T06:34:09.237Z,9.82
2023-05-14T06:36:36.876Z,10.10
2023-05-14T06:39:04.661Z,9.00
2023-05-14T06:41:32.245Z,9.73
2023-05-14T06:43:59.862Z,9.60
2023-05-14T06:46:27.440Z,9.68
2023-05-14T06:48:56.187Z,8.87
2023-05-14T06:51:26.411Z,9.35
2023-05-14T06:53:54.296Z,8.88
2023-05-14T06:56:22.090Z,9.93
2023-05-14T06:58:49.945Z,9.98
2023-05-14T07:01:17.676Z,9.50
2023-05-14T07:03:45.294Z,10.27
2023-05-14T07:06:13.857Z,9.65
2023-05-14T07:08:45.937Z,9.18
2023-05-14T07:11:14.364Z,9.13
2023-05-14T07:13:42.060Z,8.67
2023-05-14T07:16:10.280Z,9.20
2023-05-14T07:18:38.259Z,10.38
2023-05-14T07:21:06.628Z,9.45
2023-05-14T07:23:37.157Z,9.02
2023-05-14T07:26:06.679Z,8.33
2023-05-14T07:28:34.577Z,8.60
2023-05-14T07:31:02.382Z,9.50
2023-05-14T07:33:29.995Z,8.50
2023-05-14T07:35:57.645Z,8.80
2023-05-14T07:38:25.424Z,8.23
2023-05-14T07:40:53.046Z,8.07
2023-05-14T07:43:22.090Z,8.13
2023-05-14T07:45:49.834Z,7.78
2023-05-14T07:48:17.539Z,7.35
2023-05-14T07:50:45.415Z,8.40
2023-05-14T07:53:13.095Z,7.82
2023-05-14T07:55:41.712Z,7.53
2023-05-14T07:58:09.346Z,7.75
2023-05-14T08:00:38.322Z,7.47
2023-05-14T08:03:06.077Z,7.43
2023-05-14T08:05:34.035Z,7.32
2023-05-14T08:08:01.629Z,7.43
2023-05-14T08:10:29.586Z,6.72
2023-05-14T08:12:57.268Z,6.13
2023-05-14T08:15:27.555Z,5.40
2023-05-14T08:17:58.888Z,5.50
2023-05-14T08:20:27.211Z,5.45
2023-05-14T08:22:55.067Z,6.03
2023-05-14T08:25:22.592Z,5.28
2023-05-14T08:27:50.241Z,4.70
2023-05-14T08:30:17.995Z,4.82
2023-05-14T08:32:45.735Z,5.45
2023-05-14T08:35:14.698Z,5.25
2023-05-14T08:37:42.249Z,4.90
2023-05-14T08:40:10.585Z,5.13
2023-05-14T08:42:40.468Z,4.70
2023-05-14T08:45:12.557Z,5.10
2023-05-14T08:47:40.190Z,4.82
2023-05-14T08:50:08.450Z,5.50
2023-05-14T08:52:37.580Z,5.60
2023-05-14T08:55:06.322Z,5.28
2023-05-14T08:57:34.615Z,5.00
2023-05-14T09:00:02.663Z,4.80
2023-05-14T09:02:31.339Z,5.47
2023-05-14T09:04:59.831Z,5.07
2023-05-14T09:07:27.940Z,5.20
2023-05-14T09:09:57.133Z,5.38
2023-05-14T09:12:24.930Z,4.57
2023-05-14T09:14:52.953Z,4.88
2023-05-14T09:17:20.798Z,4.87
2023-05-14T09:19:49.336Z,4.60
2023-05-14T09:22:18.339Z,4.72
2023-05-14T09:24:46.316Z,4.55
2023-05-14T09:27:19.811Z,4.68
2023-05-14T09:29:47.423Z,4.20
2023-05-14T09:32:15.016Z,4.72
2023-05-14T09:34:42.681Z,5.00
2023-05-14T09:37:10.853Z,4.63
2023-05-14T09:39:38.992Z,6.53
2023-05-14T09:42:06.956Z,6.70
2023-05-14T09:44:38.058Z,7.00
2023-05-14T09:47:06.061Z,5.15
2023-05-14T09:49:33.705Z,5.20
2023-05-14T09:52:03.539Z,6.70
2023-05-14T09:54:31.301Z,5.25
2023-05-14T09:56:58.934Z,4.80
2023-05-14T09:59:26.516Z,4.30
2023-05-14T10:01:55.539Z,4.05
2023-05-14T10:04:24.094Z,4.82
2023-05-14T10:06:52.308Z,4.50
2023-05-14T10:09:23.269Z,4.83
2023-05-14T10:11:53.833Z,4.45
2023-05-14T10:14:23.039Z,4.63
2023-05-14T10:16:51.719Z,5.50
2023-05-14T10:19:21.756Z,4.95
2023-05-14T10:21:50.801Z,4.33
2023-05-14T10:24:19.191Z,4.82
2023-05-14T10:26:46.889Z,5.00
2023-05-14T10:29:14.625Z,6.35
2023-05-14T10:31:49.454Z,6.22
2023-05-14T10:34:34.821Z,6.00
2023-05-14T10:37:02.768Z,5.85
2023-05-14T10:39:43.821Z,6.60
2023-05-14T10:42:12.296Z,5.72
2023-05-14T10:44:42.334Z,6.25
2023-05-14T10:47:09.944Z,5.83
2023-05-14T10:49:43.328Z,5.93
2023-05-14T10:52:12.091Z,5.60
2023-05-14T10:54:39.905Z,6.03
2023-05-14T10:57:12.173Z,6.13
2023-05-14T10:59:42.648Z,5.60
2023-05-14T11:02:19.749Z,5.80
2023-05-14T11:04:53.218Z,5.97
2023-05-14T11:07:24.864Z,6.00
2023-05-14T11:09:52.562Z,6.60
2023-05-14T11:12:20.212Z,6.68
2023-05-14T11:14:48.106Z,5.93
2023-05-14T11:17:16.370Z,6.10
2023-05-14T11:19:44.619Z,6.32
2023-05-14T11:22:14.604Z,6.15
2023-05-14T11:24:42.407Z,6.10
2023-05-14T11:27:10.196Z,5.53
2023-05-14T11:29:37.864Z,5.90
2023-05-14T11:32:06.573Z,6.10
2023-05-14T11:34:34.619Z,6.40
2023-05-14T11:37:03.878Z,5.90
2023-05-14T11:39:33.690Z,5.90
2023-05-14T11:42:04.151Z,5.93
2023-05-14T11:44:31.784Z,5.88
2023-05-14T11:47:01.402Z,6.00
2023-05-14T11:49:30.043Z,6.05
2023-05-14T11:52:01.118Z,5.93
2023-05-14T11:54:28.781Z,5.60
2023-05-14T11:56:58.169Z,7.70
2023-05-14T11:59:25.842Z,6.03
2023-05-14T12:01:53.599Z,6.15
2023-05-14T12:04:22.773Z,5.43
2023-05-14T12:06:50.556Z,6.57
2023-05-14T12:09:19.144Z,6.70
2023-05-14T12:11:47.422Z,6.22
2023-05-14T12:14:17.597Z,6.28
2023-05-14T12:16:46.174Z,6.53
2023-05-14T12:19:15.709Z,6.25
2023-05-14T12:21:44.407Z,6.45
2023-05-14T12:24:12.863Z,5.95
2023-05-14T12:26:40.623Z,6.38
2023-05-14T12:29:08.273Z,6.03
2023-05-14T12:31:37.576Z,6.03
2023-05-14T12:34:05.598Z,6.43
2023-05-14T12:36:33.347Z,6.18
2023-05-14T12:39:03.450Z,6.82
2023-05-14T12:41:31.312Z,6.40
2023-05-14T12:44:00.139Z,7.20
2023-05-14T12:46:28.436Z,6.07
2023-05-14T12:48:57.760Z,6.10
2023-05-14T12:51:25.358Z,6.45
2023-05-14T12:53:54.172Z,5.97
2023-05-14T12:56:27.709Z,6.15
2023-05-14T12:58:56.411Z,6.50
2023-05-14T13:01:24.346Z,6.03
2023-05-14T13:03:52.134Z,5.78
2023-05-14T13:06:21.162Z,5.30
2023-05-14T13:08:48.786Z,5.90
2023-05-14T13:11:16.377Z,5.45
2023-05-14T13:13:43.976Z,5.80
2023-05-14T13:16:16.772Z,5.88
2023-05-14T13:18:44.604Z,5.10
2023-05-14T13:21:12.713Z,6.30
2023-05-14T13:23:41.663Z,5.60
2023-05-14T13:26:09.777Z,5.40
2023-05-14T13:28:37.377Z,6.07
2023-05-14T13:31:06.627Z,5.40
2023-05-14T13:33:34.647Z,5.25
2023-05-14T13:36:02.411Z,4.97
2023-05-14T13:38:30.164Z,5.32
2023-05-14T13:41:02.389Z,5.60
2023-05-14T13:43:30.706Z,4.80
2023-05-14T13:45:58.616Z,4.40
2023-05-14T13:48:27.069Z,4.95
2023-05-14T13:50:54.773Z,4.95
2023-05-14T13:53:23.089Z,4.68
2023-05-14T13:55:50.905Z,4.60
2023-05-14T13:58:19.905Z,4.60
2023-05-14T14:00:47.573Z,4.60
2023-05-14T14:03:15.197Z,4.57
2023-05-14T14:05:42.912Z,4.72
2023-05-14T14:08:22.762Z,4.50
2023-05-14T14:10:51.467Z,4.85
2023-05-14T14:13:21.302Z,4.90
2023-05-14T14:15:49.164Z,4.47
2023-05-14T14:18:16.827Z,5.05
2023-05-14T14:20:44.504Z,4.20
2023-05-14T14:23:12.124Z,4.35
2023-05-14T14:25:39.731Z,4.68
2023-05-14T14:28:07.350Z,4.45
2023-05-14T14:30:36.428Z,4.60
2023-05-14T14:33:04.508Z,4.07
2023-05-14T14:35:33.490Z,4.40
2023-05-14T14:38:01.086Z,4.40
2023-05-14T14:40:29.768Z,4.15
2023-05-14T14:42:57.413Z,4.22
2023-05-14T14:45:25.369Z,4.63
2023-05-14T14:48:14.496Z,4.45
2023-05-14T14:50:42.104Z,4.43
2023-05-14T14:53:09.827Z,4.63
2023-05-14T14:55:37.418Z,4.18
2023-05-14T14:58:05.017Z,4.30
2023-05-14T15:00:32.696Z,4.15
2023-05-14T15:03:01.749Z,4.50
2023-05-14T15:05:29.413Z,4.60
2023-05-14T15:07:57.016Z,4.70
2023-05-14T15:10:24.731Z,4.70
2023-05-14T15:12:52.578Z,4.30
2023-05-14T15:15:20.946Z,4.50
2023-05-14T15:17:48.716Z,4.43
2023-05-14T15:20:17.840Z,4.47
2023-05-14T15:22:45.544Z,4.83
2023-05-14T15:25:13.147Z,4.40
2023-05-14T15:27:40.716Z,4.30
2023-05-14T15:30:08.997Z,4.50
2023-05-14T15:32:36.662Z,4.50
2023-05-14T15:35:04.334Z,4.23
2023-05-14T15:37:36.998Z,3.97
2023-05-14T15:40:06.515Z,4.18
2023-05-14T15:42:34.124Z,4.18
2023-05-14T15:45:01.782Z,4.78
2023-05-14T15:47:29.376Z,4.00
2023-05-14T15:49:57.056Z,3.95
2023-05-14T15:52:24.676Z,4.40
2023-05-14T15:54:54.272Z,4.68
2023-05-14T15:57:21.869Z,4.55
2023-05-14T15:59:49.467Z,4.40
2023-05-14T16:02:17.211Z,4.27
2023-05-14T16:04:45.182Z,4.22
2023-05-14T16:07:13.136Z,4.60
2023-05-14T16:09:40.751Z,4.00
2023-05-14T16:12:10.046Z,4.10
2023-05-14T16:14:38.328Z,4.47
2023-05-14T16:17:07.171Z,4.43
2023-05-14T16:19:34.864Z,4.03
2023-05-14T16:22:02.446Z,3.97
2023-05-14T16:24:29.982Z,4.45
2023-05-14T16:26:57.640Z,4.30
2023-05-14T16:29:26.644Z,4.65
2023-05-14T16:31:54.255Z,3.95
2023-05-14T16:34:21.887Z,4.28
2023-05-14T16:36:49.567Z,4.10
2023-05-14T16:39:17.413Z,4.00
2023-05-14T16:41:45.053Z,3.80
2023-05-14T16:44:12.673Z,4.50
2023-05-14T16:46:41.739Z,4.43
2023-05-14T16:49:09.466Z,4.15
2023-05-14T16:51:42.216Z,4.33
2023-05-14T16:54:10.087Z,4.05
2023-05-14T16:56:37.782Z,4.20
2023-05-14T16:59:06.967Z,4.25
2023-05-14T17:01:35.096Z,4.32
2023-05-14T17:04:04.209Z,4.17
2023-05-14T17:06:32.117Z,4.20
2023-05-14T17:08:59.732Z,4.10
2023-05-14T17:11:27.587Z,4.13
2023-05-14T17:13:55.190Z,4.15
2023-05-14T17:16:22.931Z,4.23
2023-05-14T17:18:51.141Z,4.10
2023-05-14T17:21:20.217Z,4.47
2023-05-14T17:26:16.096Z,4.55
2023-05-14T17:28:43.725Z,4.13
2023-05-14T17:31:11.605Z,4.80
2023-05-14T17:33:39.379Z,4.63
2023-05-14T17:36:07.289Z,5.30
2023-05-14T17:38:36.550Z,5.05
2023-05-14T17:41:04.264Z,4.93
2023-05-14T17:43:31.900Z,5.03
2023-05-14T17:45:59.837Z,5.07
2023-05-14T17:48:27.862Z,4.85
2023-05-14T17:50:55.521Z,4.70
2023-05-14T17:53:23.161Z,4.83
2023-05-14T17:55:52.523Z,4.65
2023-05-14T17:58:20.296Z,4.78
2023-05-14T18:00:47.983Z,5.18
2023-05-14T18:03:15.789Z,4.78
2023-05-14T18:05:43.670Z,4.50
2023-05-14T18:08:11.415Z,4.90
2023-05-14T18:10:39.140Z,5.38
2023-05-14T18:13:08.324Z,5.22
2023-05-14T18:15:36.590Z,4.88
2023-05-14T18:18:04.394Z,4.93
2023-05-14T18:20:33.421Z,5.28
2023-05-14T18:23:02.605Z,5.07
2023-05-14T18:25:30.599Z,4.80
2023-05-14T18:27:58.333Z,5.47
2023-05-14T18:30:27.451Z,5.20
2023-05-14T18:32:55.106Z,5.10
2023-05-14T18:35:22.818Z,5.20
2023-05-14T18:37:50.461Z,5.47
2023-05-14T18:40:18.934Z,4.90
2023-05-14T18:42:46.890Z,5.70
2023-05-14T18:45:14.544Z,5.35
2023-05-14T18:47:43.552Z,5.20
2023-05-14T18:50:11.467Z,5.63
2023-05-14T18:52:39.308Z,5.60
2023-05-14T18:55:07.271Z,5.40
2023-05-14T18:57:34.977Z,5.95
2023-05-14T19:00:03.149Z,5.85
2023-05-14T19:02:31.006Z,5.78
2023-05-14T19:05:00.218Z,6.22
2023-05-14T19:07:28.317Z,5.97
2023-05-14T19:09:56.041Z,5.78
2023-05-14T19:12:23.644Z,6.00
2023-05-14T19:14:51.314Z,6.40
2023-05-14T19:17:20.506Z,6.53
2023-05-14T19:19:48.283Z,6.83
2023-05-14T19:22:17.720Z,6.60
2023-05-14T19:24:45.437Z,6.45
2023-05-14T19:27:16.172Z,6.45
2023-05-14T19:29:44.090Z,7.55
2023-05-14T19:32:11.750Z,7.03
2023-05-14T19:34:39.331Z,6.70
2023-05-14T19:37:06.934Z,6.93
2023-05-14T19:39:36.275Z,6.43
2023-05-14T19:42:03.946Z,6.55
2023-05-14T19:44:31.959Z,6.07
2023-05-14T19:46:59.676Z,6.13
2023-05-14T19:49:27.342Z,5.95
2023-05-14T19:51:54.975Z,6.85
2023-05-14T19:54:22.582Z,6.80
2023-05-14T19:56:51.672Z,6.10
2023-05-14T19:59:19.382Z,6.50
2023-05-14T20:01:47.173Z,6.30
2023-05-14T20:04:16.193Z,6.63
2023-05-14T20:06:45.549Z,6.53
2023-05-14T20:09:13.933Z,7.27
2023-05-14T20:11:41.690Z,6.35
2023-05-14T20:14:10.657Z,6.43
2023-05-14T20:16:38.329Z,6.97
2023-05-14T20:19:06.072Z,6.47
2023-05-14T20:21:33.808Z,6.77
2023-05-14T20:24:01.429Z,6.65
2023-05-14T20:26:29.016Z,6.70
2023-05-14T20:28:56.627Z,6.60
2023-05-14T20:31:25.787Z,6.60
2023-05-14T20:33:54.463Z,6.77
2023-05-14T20:36:22.257Z,7.25
2023-05-14T20:38:50.214Z,7.00
2023-05-14T20:41:17.805Z,7.50
2023-05-14T20:43:45.409Z,7.20
2023-05-14T20:46:13.188Z,7.40
2023-05-14T20:48:42.159Z,7.03
2023-05-14T20:51:09.786Z,7.47
2023-05-14T20:53:39.098Z,7.50
2023-05-14T20:56:06.987Z,7.25
2023-05-14T20:58:36.258Z,7.50
2023-05-14T21:01:04.869Z,7.50
2023-05-14T21:03:32.634Z,7.35
2023-05-14T21:06:02.680Z,7.55
2023-05-14T21:08:32.804Z,7.53
2023-05-14T21:11:00.613Z,7.33
2023-05-14T21:13:28.214Z,8.30
2023-05-14T21:15:55.832Z,7.32
2023-05-14T21:18:26.633Z,7.40
2023-05-14T21:20:54.253Z,7.40
2023-05-14T21:23:23.344Z,6.93
2023-05-14T21:25:51.234Z,7.20
2023-05-14T21:28:18.849Z,7.45
2023-05-14T21:30:46.462Z,7.50
2023-05-14T21:33:15.528Z,7.28
2023-05-14T21:35:43.347Z,7.90
2023-05-14T21:38:10.998Z,7.53
2023-05-14T21:40:39.980Z,7.10
2023-05-14T21:43:07.592Z,7.63
2023-05-14T21:45:35.985Z,7.90
2023-05-14T21:48:03.674Z,7.63
2023-05-14T21:50:31.320Z,7.35
2023-05-14T21:52:58.917Z,7.05
2023-05-14T21:55:27.678Z,7.38
2023-05-14T21:57:57.041Z,6.97
2023-05-14T22:00:25.204Z,6.67
2023-05-14T22:02:53.534Z,6.95
2023-05-14T22:05:21.318Z,7.75
2023-05-14T22:07:49.418Z,6.68
2023-05-14T22:10:17.289Z,7.18
2023-05-14T22:12:45.218Z,7.33
2023-05-14T22:15:14.347Z,7.25
2023-05-14T22:17:42.086Z,7.00
2023-05-14T22:20:11.260Z,6.97
2023-05-14T22:22:39.073Z,7.10
2023-05-14T22:25:07.304Z,7.73
2023-05-14T22:27:34.913Z,7.43
2023-05-14T22:30:02.665Z,7.78
2023-05-14T22:32:31.825Z,7.20
2023-05-14T22:34:59.445Z,7.32
2023-05-14T22:37:27.084Z,7.90
2023-05-14T22:39:54.935Z,7.60
2023-05-14T22:42:22.557Z,7.35
2023-05-14T22:44:50.155Z,7.50
2023-05-14T22:47:17.799Z,6.85
2023-05-14T22:49:46.791Z,6.50
2023-05-14T22:52:14.471Z,6.93
2023-05-14T22:54:42.388Z,6.95
2023-05-14T22:57:09.984Z,7.07
2023-05-14T22:59:37.589Z,6.63
2023-05-14T23:02:05.398Z,6.63
2023-05-14T23:04:33.146Z,7.15
2023-05-14T23:07:02.280Z,6.80
2023-05-14T23:09:29.887Z,7.50
2023-05-14T23:11:57.486Z,7.38
2023-05-14T23:14:25.142Z,7.23
2023-05-14T23:16:52.791Z,7.30
2023-05-14T23:19:21.078Z,7.10
2023-05-14T23:21:48.726Z,7.45
2023-05-14T23:24:17.704Z,7.47
2023-05-14T23:26:45.350Z,6.73
2023-05-14T23:29:12.933Z,8.10
2023-05-14T23:31:41.129Z,6.75
2023-05-14T23:34:08.873Z,7.25
2023-05-14T23:36:36.585Z,6.93
2023-05-14T23:39:04.331Z,7.03
2023-05-14T23:41:33.281Z,7.10
2023-05-14T23:44:00.917Z,7.07
2023-05-14T23:46:28.889Z,7.20
2023-05-14T23:48:57.139Z,7.35
2023-05-14T23:51:25.162Z,7.43
2023-05-14T23:53:56.337Z,7.40
2023-05-14T23:56:23.970Z,7.20
2023-05-14T23:58:52.972Z,7.15
